sensor_id;sensor_type;location;lat;lon;timestamp;P1;durP1;ratioP1;P2;durP2;ratioP2
56331;SDS011;42237;53.340;6.812;2022-08-19T00:00:15;13.45;;;8.15;;
56331;SDS011;42237;53.340;6.812;2022-08-19T00:02:41;11.10;;;8.43;;
56331;SDS011;42237;53.340;6.812;2022-08-19T00:05:08;12.98;;;7.97;;
56331;SDS011;42237;53.340;6.812;2022-08-19T00:07:35;18.77;;;9.23;;
56331;SDS011;42237;53.340;6.812;2022-08-19T00:10:03;17.25;;;9.55;;
56331;SDS011;42237;53.340;6.812;2022-08-19T00:12:30;15.50;;;8.95;;
56331;SDS011;42237;53.340;6.812;2022-08-19T00:14:56;15.07;;;8.82;;
56331;SDS011;42237;53.340;6.812;2022-08-19T00:17:21;16.95;;;9.80;;
56331;SDS011;42237;53.340;6.812;2022-08-19T00:19:47;19.08;;;9.27;;
56331;SDS011;42237;53.340;6.812;2022-08-19T00:22:13;16.92;;;9.93;;
56331;SDS011;42237;53.340;6.812;2022-08-19T00:24:38;18.83;;;10.00;;
56331;SDS011;42237;53.340;6.812;2022-08-19T00:27:06;17.38;;;10.60;;
56331;SDS011;42237;53.340;6.812;2022-08-19T00:29:32;19.02;;;10.48;;
56331;SDS011;42237;53.340;6.812;2022-08-19T00:31:57;16.98;;;10.75;;
56331;SDS011;42237;53.340;6.812;2022-08-19T00:34:25;16.85;;;10.32;;
56331;SDS011;42237;53.340;6.812;2022-08-19T00:36:53;17.65;;;10.48;;
56331;SDS011;42237;53.340;6.812;2022-08-19T00:39:19;20.38;;;11.13;;
56331;SDS011;42237;53.340;6.812;2022-08-19T00:41:46;17.73;;;9.73;;
56331;SDS011;42237;53.340;6.812;2022-08-19T00:44:19;18.83;;;10.70;;
56331;SDS011;42237;53.340;6.812;2022-08-19T00:46:47;19.35;;;11.07;;
56331;SDS011;42237;53.340;6.812;2022-08-19T00:49:22;19.40;;;10.32;;
56331;SDS011;42237;53.340;6.812;2022-08-19T00:51:55;18.58;;;11.00;;
56331;SDS011;42237;53.340;6.812;2022-08-19T00:54:31;19.58;;;11.07;;
56331;SDS011;42237;53.340;6.812;2022-08-19T00:56:58;17.63;;;10.85;;
56331;SDS011;42237;53.340;6.812;2022-08-19T00:59:25;18.33;;;11.40;;
56331;SDS011;42237;53.340;6.812;2022-08-19T01:01:52;19.67;;;11.05;;
56331;SDS011;42237;53.340;6.812;2022-08-19T01:04:18;17.88;;;10.60;;
56331;SDS011;42237;53.340;6.812;2022-08-19T01:06:44;17.13;;;11.27;;
56331;SDS011;42237;53.340;6.812;2022-08-19T01:09:10;18.70;;;10.65;;
56331;SDS011;42237;53.340;6.812;2022-08-19T01:11:36;17.65;;;10.32;;
56331;SDS011;42237;53.340;6.812;2022-08-19T01:14:06;20.10;;;9.75;;
56331;SDS011;42237;53.340;6.812;2022-08-19T01:16:33;19.88;;;10.57;;
56331;SDS011;42237;53.340;6.812;2022-08-19T01:19:02;18.10;;;10.95;;
56331;SDS011;42237;53.340;6.812;2022-08-19T01:21:42;28.00;;;11.80;;
56331;SDS011;42237;53.340;6.812;2022-08-19T01:24:12;17.70;;;11.10;;
56331;SDS011;42237;53.340;6.812;2022-08-19T01:26:41;20.52;;;10.82;;
56331;SDS011;42237;53.340;6.812;2022-08-19T01:29:09;26.50;;;11.93;;
56331;SDS011;42237;53.340;6.812;2022-08-19T01:31:36;21.63;;;11.68;;
56331;SDS011;42237;53.340;6.812;2022-08-19T01:34:04;19.58;;;11.02;;
56331;SDS011;42237;53.340;6.812;2022-08-19T01:38:59;21.95;;;12.10;;
56331;SDS011;42237;53.340;6.812;2022-08-19T01:41:26;22.48;;;12.25;;
56331;SDS011;42237;53.340;6.812;2022-08-19T01:43:52;18.55;;;11.25;;
56331;SDS011;42237;53.340;6.812;2022-08-19T01:46:19;20.73;;;10.63;;
56331;SDS011;42237;53.340;6.812;2022-08-19T01:48:45;19.38;;;11.30;;
56331;SDS011;42237;53.340;6.812;2022-08-19T01:51:11;32.70;;;10.60;;
56331;SDS011;42237;53.340;6.812;2022-08-19T01:53:38;23.33;;;11.48;;
56331;SDS011;42237;53.340;6.812;2022-08-19T01:56:04;23.08;;;11.50;;
56331;SDS011;42237;53.340;6.812;2022-08-19T01:58:35;16.42;;;10.73;;
56331;SDS011;42237;53.340;6.812;2022-08-19T02:01:06;17.23;;;10.18;;
56331;SDS011;42237;53.340;6.812;2022-08-19T02:03:33;15.27;;;8.60;;
56331;SDS011;42237;53.340;6.812;2022-08-19T02:06:00;15.38;;;8.95;;
56331;SDS011;42237;53.340;6.812;2022-08-19T02:08:28;13.27;;;8.05;;
56331;SDS011;42237;53.340;6.812;2022-08-19T02:10:55;17.05;;;9.18;;
56331;SDS011;42237;53.340;6.812;2022-08-19T02:13:21;15.55;;;8.43;;
56331;SDS011;42237;53.340;6.812;2022-08-19T02:15:48;11.20;;;7.85;;
56331;SDS011;42237;53.340;6.812;2022-08-19T02:18:13;11.30;;;7.28;;
56331;SDS011;42237;53.340;6.812;2022-08-19T02:20:41;12.15;;;7.35;;
56331;SDS011;42237;53.340;6.812;2022-08-19T02:23:08;14.55;;;7.97;;
56331;SDS011;42237;53.340;6.812;2022-08-19T02:25:35;12.88;;;7.70;;
56331;SDS011;42237;53.340;6.812;2022-08-19T02:28:02;13.82;;;7.95;;
56331;SDS011;42237;53.340;6.812;2022-08-19T02:30:28;13.73;;;7.97;;
56331;SDS011;42237;53.340;6.812;2022-08-19T02:32:53;14.18;;;8.02;;
56331;SDS011;42237;53.340;6.812;2022-08-19T02:35:19;15.95;;;8.20;;
56331;SDS011;42237;53.340;6.812;2022-08-19T02:37:45;15.77;;;7.68;;
56331;SDS011;42237;53.340;6.812;2022-08-19T02:40:30;9.77;;;6.50;;
56331;SDS011;42237;53.340;6.812;2022-08-19T02:43:01;14.65;;;8.30;;
56331;SDS011;42237;53.340;6.812;2022-08-19T02:45:33;14.50;;;9.07;;
56331;SDS011;42237;53.340;6.812;2022-08-19T02:48:00;15.13;;;9.13;;
56331;SDS011;42237;53.340;6.812;2022-08-19T02:50:26;14.45;;;8.88;;
56331;SDS011;42237;53.340;6.812;2022-08-19T02:52:52;17.17;;;10.00;;
56331;SDS011;42237;53.340;6.812;2022-08-19T02:55:17;16.67;;;9.90;;
56331;SDS011;42237;53.340;6.812;2022-08-19T02:57:43;19.38;;;9.70;;
56331;SDS011;42237;53.340;6.812;2022-08-19T03:00:09;14.25;;;9.40;;
56331;SDS011;42237;53.340;6.812;2022-08-19T03:02:38;19.55;;;10.65;;
56331;SDS011;42237;53.340;6.812;2022-08-19T03:05:04;17.80;;;9.30;;
56331;SDS011;42237;53.340;6.812;2022-08-19T03:07:32;17.17;;;9.80;;
56331;SDS011;42237;53.340;6.812;2022-08-19T03:09:58;14.23;;;8.77;;
56331;SDS011;42237;53.340;6.812;2022-08-19T03:12:24;14.57;;;9.23;;
56331;SDS011;42237;53.340;6.812;2022-08-19T03:14:50;19.10;;;11.00;;
56331;SDS011;42237;53.340;6.812;2022-08-19T03:17:17;16.52;;;9.45;;
56331;SDS011;42237;53.340;6.812;2022-08-19T03:19:42;19.23;;;10.73;;
56331;SDS011;42237;53.340;6.812;2022-08-19T03:22:08;14.00;;;9.60;;
56331;SDS011;42237;53.340;6.812;2022-08-19T03:24:34;18.23;;;11.32;;
56331;SDS011;42237;53.340;6.812;2022-08-19T03:27:00;15.90;;;10.02;;
56331;SDS011;42237;53.340;6.812;2022-08-19T03:29:26;15.18;;;9.93;;
56331;SDS011;42237;53.340;6.812;2022-08-19T03:31:53;19.23;;;9.48;;
56331;SDS011;42237;53.340;6.812;2022-08-19T03:34:26;23.42;;;10.48;;
56331;SDS011;42237;53.340;6.812;2022-08-19T03:36:55;22.70;;;10.98;;
56331;SDS011;42237;53.340;6.812;2022-08-19T03:39:23;18.80;;;10.77;;
56331;SDS011;42237;53.340;6.812;2022-08-19T03:41:51;22.92;;;10.82;;
56331;SDS011;42237;53.340;6.812;2022-08-19T03:44:19;17.52;;;9.82;;
56331;SDS011;42237;53.340;6.812;2022-08-19T03:46:47;19.38;;;9.98;;
56331;SDS011;42237;53.340;6.812;2022-08-19T03:49:18;17.83;;;10.18;;
56331;SDS011;42237;53.340;6.812;2022-08-19T03:51:45;19.55;;;10.48;;
56331;SDS011;42237;53.340;6.812;2022-08-19T03:54:13;20.92;;;10.70;;
56331;SDS011;42237;53.340;6.812;2022-08-19T03:56:41;20.00;;;11.10;;
56331;SDS011;42237;53.340;6.812;2022-08-19T03:59:09;20.88;;;10.93;;
56331;SDS011;42237;53.340;6.812;2022-08-19T04:01:36;19.00;;;10.38;;
56331;SDS011;42237;53.340;6.812;2022-08-19T04:04:02;18.63;;;10.82;;
56331;SDS011;42237;53.340;6.812;2022-08-19T04:06:29;18.98;;;10.77;;
56331;SDS011;42237;53.340;6.812;2022-08-19T04:08:58;19.42;;;10.98;;
56331;SDS011;42237;53.340;6.812;2022-08-19T04:11:26;20.33;;;10.25;;
56331;SDS011;42237;53.340;6.812;2022-08-19T04:13:55;19.95;;;10.93;;
56331;SDS011;42237;53.340;6.812;2022-08-19T04:16:23;16.55;;;10.07;;
56331;SDS011;42237;53.340;6.812;2022-08-19T04:18:50;21.90;;;9.93;;
56331;SDS011;42237;53.340;6.812;2022-08-19T04:21:17;21.55;;;11.27;;
56331;SDS011;42237;53.340;6.812;2022-08-19T04:23:44;23.50;;;12.13;;
56331;SDS011;42237;53.340;6.812;2022-08-19T04:26:14;25.02;;;12.32;;
56331;SDS011;42237;53.340;6.812;2022-08-19T04:28:46;22.10;;;10.55;;
56331;SDS011;42237;53.340;6.812;2022-08-19T04:31:18;20.92;;;11.55;;
56331;SDS011;42237;53.340;6.812;2022-08-19T04:33:45;23.52;;;11.27;;
56331;SDS011;42237;53.340;6.812;2022-08-19T04:36:19;19.15;;;10.63;;
56331;SDS011;42237;53.340;6.812;2022-08-19T04:38:47;20.60;;;11.43;;
56331;SDS011;42237;53.340;6.812;2022-08-19T04:41:13;23.65;;;11.82;;
56331;SDS011;42237;53.340;6.812;2022-08-19T04:43:57;25.20;;;12.30;;
56331;SDS011;42237;53.340;6.812;2022-08-19T04:46:23;23.38;;;12.07;;
56331;SDS011;42237;53.340;6.812;2022-08-19T04:48:49;21.98;;;11.43;;
56331;SDS011;42237;53.340;6.812;2022-08-19T04:51:15;18.60;;;10.30;;
56331;SDS011;42237;53.340;6.812;2022-08-19T04:53:42;19.40;;;10.35;;
56331;SDS011;42237;53.340;6.812;2022-08-19T04:56:12;24.67;;;11.80;;
56331;SDS011;42237;53.340;6.812;2022-08-19T04:58:39;21.85;;;11.43;;
56331;SDS011;42237;53.340;6.812;2022-08-19T05:01:08;23.67;;;11.25;;
56331;SDS011;42237;53.340;6.812;2022-08-19T05:03:35;22.88;;;11.07;;
56331;SDS011;42237;53.340;6.812;2022-08-19T05:06:05;21.50;;;10.25;;
56331;SDS011;42237;53.340;6.812;2022-08-19T05:08:32;17.77;;;10.57;;
56331;SDS011;42237;53.340;6.812;2022-08-19T05:11:00;23.42;;;11.95;;
56331;SDS011;42237;53.340;6.812;2022-08-19T05:13:26;26.50;;;12.45;;
56331;SDS011;42237;53.340;6.812;2022-08-19T05:15:54;24.17;;;12.70;;
56331;SDS011;42237;53.340;6.812;2022-08-19T05:18:23;24.00;;;13.40;;
56331;SDS011;42237;53.340;6.812;2022-08-19T05:21:08;28.63;;;13.05;;
56331;SDS011;42237;53.340;6.812;2022-08-19T05:23:54;32.45;;;13.10;;
56331;SDS011;42237;53.340;6.812;2022-08-19T05:26:19;25.83;;;13.27;;
56331;SDS011;42237;53.340;6.812;2022-08-19T05:28:47;24.73;;;12.05;;
56331;SDS011;42237;53.340;6.812;2022-08-19T05:31:13;23.77;;;12.30;;
56331;SDS011;42237;53.340;6.812;2022-08-19T05:33:39;19.20;;;11.18;;
56331;SDS011;42237;53.340;6.812;2022-08-19T05:36:05;20.88;;;10.90;;
56331;SDS011;42237;53.340;6.812;2022-08-19T05:38:32;21.75;;;10.63;;
56331;SDS011;42237;53.340;6.812;2022-08-19T05:41:00;25.40;;;12.93;;
56331;SDS011;42237;53.340;6.812;2022-08-19T05:43:33;27.45;;;13.02;;
56331;SDS011;42237;53.340;6.812;2022-08-19T05:45:59;24.98;;;13.13;;
56331;SDS011;42237;53.340;6.812;2022-08-19T05:48:24;26.95;;;13.45;;
56331;SDS011;42237;53.340;6.812;2022-08-19T05:50:51;26.92;;;13.38;;
56331;SDS011;42237;53.340;6.812;2022-08-19T05:53:17;26.98;;;13.05;;
56331;SDS011;42237;53.340;6.812;2022-08-19T05:55:43;26.63;;;13.45;;
56331;SDS011;42237;53.340;6.812;2022-08-19T05:58:09;22.45;;;12.38;;
56331;SDS011;42237;53.340;6.812;2022-08-19T06:00:36;22.65;;;11.50;;
56331;SDS011;42237;53.340;6.812;2022-08-19T06:03:02;19.85;;;11.43;;
56331;SDS011;42237;53.340;6.812;2022-08-19T06:05:29;19.63;;;11.05;;
56331;SDS011;42237;53.340;6.812;2022-08-19T06:07:55;23.38;;;11.73;;
56331;SDS011;42237;53.340;6.812;2022-08-19T06:10:21;21.48;;;10.93;;
56331;SDS011;42237;53.340;6.812;2022-08-19T06:12:48;18.88;;;10.57;;
56331;SDS011;42237;53.340;6.812;2022-08-19T06:15:15;20.48;;;11.00;;
56331;SDS011;42237;53.340;6.812;2022-08-19T06:17:41;19.35;;;10.85;;
56331;SDS011;42237;53.340;6.812;2022-08-19T06:20:10;18.80;;;10.68;;
56331;SDS011;42237;53.340;6.812;2022-08-19T06:22:42;19.13;;;10.73;;
56331;SDS011;42237;53.340;6.812;2022-08-19T06:25:14;21.10;;;11.68;;
56331;SDS011;42237;53.340;6.812;2022-08-19T06:27:42;20.58;;;11.93;;
56331;SDS011;42237;53.340;6.812;2022-08-19T06:30:08;24.48;;;12.70;;
56331;SDS011;42237;53.340;6.812;2022-08-19T06:32:36;23.83;;;12.20;;
56331;SDS011;42237;53.340;6.812;2022-08-19T06:35:02;25.23;;;13.35;;
56331;SDS011;42237;53.340;6.812;2022-08-19T06:37:29;22.33;;;13.02;;
56331;SDS011;42237;53.340;6.812;2022-08-19T06:39:55;25.92;;;12.55;;
56331;SDS011;42237;53.340;6.812;2022-08-19T06:42:20;23.73;;;12.30;;
56331;SDS011;42237;53.340;6.812;2022-08-19T06:44:47;19.92;;;11.98;;
56331;SDS011;42237;53.340;6.812;2022-08-19T06:47:16;24.55;;;12.85;;
56331;SDS011;42237;53.340;6.812;2022-08-19T06:49:44;22.75;;;12.43;;
56331;SDS011;42237;53.340;6.812;2022-08-19T06:52:11;25.42;;;12.10;;
56331;SDS011;42237;53.340;6.812;2022-08-19T06:54:37;22.75;;;13.05;;
56331;SDS011;42237;53.340;6.812;2022-08-19T06:57:04;24.85;;;13.38;;
56331;SDS011;42237;53.340;6.812;2022-08-19T06:59:31;22.70;;;12.20;;
56331;SDS011;42237;53.340;6.812;2022-08-19T07:02:01;25.45;;;13.75;;
56331;SDS011;42237;53.340;6.812;2022-08-19T07:04:30;22.80;;;13.15;;
56331;SDS011;42237;53.340;6.812;2022-08-19T07:06:58;23.17;;;12.90;;
56331;SDS011;42237;53.340;6.812;2022-08-19T07:09:24;22.73;;;12.98;;
56331;SDS011;42237;53.340;6.812;2022-08-19T07:11:51;22.02;;;13.65;;
56331;SDS011;42237;53.340;6.812;2022-08-19T07:14:19;24.33;;;13.95;;
56331;SDS011;42237;53.340;6.812;2022-08-19T07:16:50;25.67;;;14.43;;
56331;SDS011;42237;53.340;6.812;2022-08-19T07:19:18;24.73;;;12.65;;
56331;SDS011;42237;53.340;6.812;2022-08-19T07:21:45;23.40;;;13.10;;
56331;SDS011;42237;53.340;6.812;2022-08-19T07:24:12;20.20;;;13.85;;
56331;SDS011;42237;53.340;6.812;2022-08-19T07:26:39;23.98;;;12.82;;
56331;SDS011;42237;53.340;6.812;2022-08-19T07:29:07;24.50;;;14.38;;
56331;SDS011;42237;53.340;6.812;2022-08-19T07:31:33;26.13;;;14.50;;
56331;SDS011;42237;53.340;6.812;2022-08-19T07:34:02;25.88;;;14.07;;
56331;SDS011;42237;53.340;6.812;2022-08-19T07:36:31;24.90;;;14.02;;
56331;SDS011;42237;53.340;6.812;2022-08-19T07:38:58;24.40;;;13.93;;
56331;SDS011;42237;53.340;6.812;2022-08-19T07:41:26;23.77;;;13.43;;
56331;SDS011;42237;53.340;6.812;2022-08-19T07:43:54;22.85;;;13.68;;
56331;SDS011;42237;53.340;6.812;2022-08-19T07:46:20;20.58;;;13.43;;
56331;SDS011;42237;53.340;6.812;2022-08-19T07:48:46;23.60;;;14.30;;
56331;SDS011;42237;53.340;6.812;2022-08-19T07:51:16;23.92;;;12.93;;
56331;SDS011;42237;53.340;6.812;2022-08-19T07:53:44;22.83;;;12.90;;
56331;SDS011;42237;53.340;6.812;2022-08-19T07:56:12;19.50;;;11.88;;
56331;SDS011;42237;53.340;6.812;2022-08-19T07:58:39;20.85;;;12.52;;
56331;SDS011;42237;53.340;6.812;2022-08-19T08:01:09;23.42;;;11.80;;
56331;SDS011;42237;53.340;6.812;2022-08-19T08:03:37;19.83;;;12.32;;
56331;SDS011;42237;53.340;6.812;2022-08-19T08:06:21;20.95;;;11.95;;
56331;SDS011;42237;53.340;6.812;2022-08-19T08:09:06;79.20;;;18.75;;
56331;SDS011;42237;53.340;6.812;2022-08-19T08:11:36;17.17;;;12.52;;
56331;SDS011;42237;53.340;6.812;2022-08-19T08:14:17;15.35;;;10.35;;
56331;SDS011;42237;53.340;6.812;2022-08-19T08:16:48;25.50;;;11.15;;
56331;SDS011;42237;53.340;6.812;2022-08-19T08:19:16;20.33;;;10.25;;
56331;SDS011;42237;53.340;6.812;2022-08-19T08:21:43;20.55;;;11.13;;
56331;SDS011;42237;53.340;6.812;2022-08-19T08:24:10;19.20;;;10.43;;
56331;SDS011;42237;53.340;6.812;2022-08-19T08:26:36;20.20;;;10.50;;
56331;SDS011;42237;53.340;6.812;2022-08-19T08:29:02;20.02;;;10.25;;
56331;SDS011;42237;53.340;6.812;2022-08-19T08:31:28;18.25;;;11.85;;
56331;SDS011;42237;53.340;6.812;2022-08-19T08:33:54;21.40;;;11.15;;
56331;SDS011;42237;53.340;6.812;2022-08-19T08:36:20;16.73;;;10.35;;
56331;SDS011;42237;53.340;6.812;2022-08-19T08:38:46;34.20;;;14.02;;
56331;SDS011;42237;53.340;6.812;2022-08-19T08:44:00;17.95;;;11.27;;
56331;SDS011;42237;53.340;6.812;2022-08-19T08:46:43;14.57;;;9.85;;
56331;SDS011;42237;53.340;6.812;2022-08-19T08:52:07;21.65;;;13.18;;
56331;SDS011;42237;53.340;6.812;2022-08-19T08:54:40;24.83;;;13.18;;
56331;SDS011;42237;53.340;6.812;2022-08-19T08:57:10;20.02;;;12.68;;
56331;SDS011;42237;53.340;6.812;2022-08-19T08:59:47;20.80;;;13.13;;
56331;SDS011;42237;53.340;6.812;2022-08-19T09:02:18;22.25;;;13.02;;
56331;SDS011;42237;53.340;6.812;2022-08-19T09:04:44;62.80;;;19.52;;
56331;SDS011;42237;53.340;6.812;2022-08-19T09:13:08;17.65;;;10.82;;
56331;SDS011;42237;53.340;6.812;2022-08-19T09:15:48;17.42;;;10.73;;
56331;SDS011;42237;53.340;6.812;2022-08-19T09:18:21;16.05;;;10.10;;
56331;SDS011;42237;53.340;6.812;2022-08-19T09:20:47;14.98;;;10.88;;
56331;SDS011;42237;53.340;6.812;2022-08-19T09:23:13;15.85;;;10.32;;
56331;SDS011;42237;53.340;6.812;2022-08-19T09:25:39;16.67;;;10.40;;
56331;SDS011;42237;53.340;6.812;2022-08-19T09:28:05;15.60;;;9.82;;
56331;SDS011;42237;53.340;6.812;2022-08-19T09:30:33;16.35;;;10.35;;
56331;SDS011;42237;53.340;6.812;2022-08-19T09:33:04;16.02;;;10.18;;
56331;SDS011;42237;53.340;6.812;2022-08-19T09:35:31;10.13;;;6.72;;
56331;SDS011;42237;53.340;6.812;2022-08-19T09:37:57;9.00;;;6.47;;
56331;SDS011;42237;53.340;6.812;2022-08-19T09:40:24;12.20;;;8.45;;
56331;SDS011;42237;53.340;6.812;2022-08-19T09:42:51;26.65;;;9.40;;
56331;SDS011;42237;53.340;6.812;2022-08-19T09:45:18;13.77;;;7.07;;
56331;SDS011;42237;53.340;6.812;2022-08-19T09:47:51;11.07;;;7.18;;
56331;SDS011;42237;53.340;6.812;2022-08-19T09:50:18;11.77;;;7.70;;
56331;SDS011;42237;53.340;6.812;2022-08-19T09:52:45;10.00;;;6.40;;
56331;SDS011;42237;53.340;6.812;2022-08-19T09:55:11;9.13;;;5.82;;
56331;SDS011;42237;53.340;6.812;2022-08-19T09:57:37;8.68;;;5.90;;
56331;SDS011;42237;53.340;6.812;2022-08-19T10:00:04;10.02;;;5.60;;
56331;SDS011;42237;53.340;6.812;2022-08-19T10:02:32;7.82;;;5.32;;
56331;SDS011;42237;53.340;6.812;2022-08-19T10:04:58;10.73;;;6.60;;
56331;SDS011;42237;53.340;6.812;2022-08-19T10:07:42;9.50;;;5.97;;
56331;SDS011;42237;53.340;6.812;2022-08-19T10:10:08;32.45;;;7.85;;
56331;SDS011;42237;53.340;6.812;2022-08-19T10:12:34;8.52;;;5.45;;
56331;SDS011;42237;53.340;6.812;2022-08-19T10:15:04;8.35;;;4.97;;
56331;SDS011;42237;53.340;6.812;2022-08-19T10:17:31;7.70;;;4.00;;
56331;SDS011;42237;53.340;6.812;2022-08-19T10:19:58;8.55;;;5.47;;
56331;SDS011;42237;53.340;6.812;2022-08-19T10:22:24;8.00;;;5.28;;
56331;SDS011;42237;53.340;6.812;2022-08-19T10:24:50;20.25;;;7.65;;
56331;SDS011;42237;53.340;6.812;2022-08-19T10:27:16;9.05;;;5.30;;
56331;SDS011;42237;53.340;6.812;2022-08-19T10:29:42;8.90;;;5.43;;
56331;SDS011;42237;53.340;6.812;2022-08-19T10:32:09;7.43;;;5.70;;
56331;SDS011;42237;53.340;6.812;2022-08-19T10:34:36;7.38;;;5.68;;
56331;SDS011;42237;53.340;6.812;2022-08-19T10:37:04;9.60;;;6.07;;
56331;SDS011;42237;53.340;6.812;2022-08-19T10:39:32;9.45;;;6.40;;
56331;SDS011;42237;53.340;6.812;2022-08-19T10:41:58;10.23;;;6.78;;
56331;SDS011;42237;53.340;6.812;2022-08-19T10:44:28;8.90;;;6.63;;
56331;SDS011;42237;53.340;6.812;2022-08-19T10:46:55;10.63;;;6.75;;
56331;SDS011;42237;53.340;6.812;2022-08-19T10:49:20;10.45;;;7.85;;
56331;SDS011;42237;53.340;6.812;2022-08-19T10:51:47;9.95;;;7.15;;
56331;SDS011;42237;53.340;6.812;2022-08-19T10:54:32;26.67;;;9.30;;
56331;SDS011;42237;53.340;6.812;2022-08-19T10:57:16;10.27;;;7.10;;
56331;SDS011;42237;53.340;6.812;2022-08-19T10:59:42;9.15;;;7.10;;
56331;SDS011;42237;53.340;6.812;2022-08-19T11:02:09;13.45;;;9.55;;
56331;SDS011;42237;53.340;6.812;2022-08-19T11:04:37;11.93;;;8.02;;
56331;SDS011;42237;53.340;6.812;2022-08-19T11:07:04;12.73;;;9.05;;
56331;SDS011;42237;53.340;6.812;2022-08-19T11:09:30;13.02;;;9.60;;
56331;SDS011;42237;53.340;6.812;2022-08-19T11:11:57;12.95;;;10.05;;
56331;SDS011;42237;53.340;6.812;2022-08-19T11:14:23;15.15;;;9.50;;
56331;SDS011;42237;53.340;6.812;2022-08-19T11:16:51;12.73;;;9.35;;
56331;SDS011;42237;53.340;6.812;2022-08-19T11:19:21;10.95;;;8.93;;
56331;SDS011;42237;53.340;6.812;2022-08-19T11:21:48;12.52;;;8.13;;
56331;SDS011;42237;53.340;6.812;2022-08-19T11:24:20;15.70;;;10.27;;
56331;SDS011;42237;53.340;6.812;2022-08-19T11:26:48;15.23;;;10.50;;
56331;SDS011;42237;53.340;6.812;2022-08-19T11:29:16;16.95;;;11.65;;
56331;SDS011;42237;53.340;6.812;2022-08-19T11:31:47;11.65;;;9.25;;
56331;SDS011;42237;53.340;6.812;2022-08-19T11:34:16;17.17;;;11.38;;
56331;SDS011;42237;53.340;6.812;2022-08-19T11:36:45;11.55;;;9.18;;
56331;SDS011;42237;53.340;6.812;2022-08-19T11:39:13;15.18;;;10.68;;
56331;SDS011;42237;53.340;6.812;2022-08-19T11:41:40;19.70;;;10.68;;
56331;SDS011;42237;53.340;6.812;2022-08-19T11:44:06;15.07;;;11.10;;
56331;SDS011;42237;53.340;6.812;2022-08-19T11:46:35;14.82;;;11.27;;
56331;SDS011;42237;53.340;6.812;2022-08-19T11:49:03;12.02;;;9.77;;
56331;SDS011;42237;53.340;6.812;2022-08-19T11:51:34;14.65;;;10.35;;
56331;SDS011;42237;53.340;6.812;2022-08-19T11:54:00;14.15;;;8.93;;
56331;SDS011;42237;53.340;6.812;2022-08-19T11:56:26;11.00;;;8.23;;
56331;SDS011;42237;53.340;6.812;2022-08-19T11:58:53;16.05;;;10.77;;
56331;SDS011;42237;53.340;6.812;2022-08-19T12:01:22;11.85;;;8.98;;
56331;SDS011;42237;53.340;6.812;2022-08-19T12:03:50;16.15;;;8.35;;
56331;SDS011;42237;53.340;6.812;2022-08-19T12:06:19;11.93;;;7.72;;
56331;SDS011;42237;53.340;6.812;2022-08-19T12:08:50;16.80;;;9.95;;
56331;SDS011;42237;53.340;6.812;2022-08-19T12:11:17;14.25;;;9.80;;
56331;SDS011;42237;53.340;6.812;2022-08-19T12:13:43;18.27;;;10.73;;
56331;SDS011;42237;53.340;6.812;2022-08-19T12:16:12;18.13;;;12.90;;
56331;SDS011;42237;53.340;6.812;2022-08-19T12:18:57;20.85;;;14.25;;
56331;SDS011;42237;53.340;6.812;2022-08-19T12:21:28;18.77;;;13.75;;
56331;SDS011;42237;53.340;6.812;2022-08-19T12:23:54;18.48;;;12.32;;
56331;SDS011;42237;53.340;6.812;2022-08-19T12:26:22;18.25;;;12.60;;
56331;SDS011;42237;53.340;6.812;2022-08-19T12:28:49;18.10;;;12.20;;
56331;SDS011;42237;53.340;6.812;2022-08-19T12:31:15;17.20;;;12.50;;
56331;SDS011;42237;53.340;6.812;2022-08-19T12:33:41;17.65;;;12.48;;
56331;SDS011;42237;53.340;6.812;2022-08-19T12:36:09;18.05;;;12.80;;
56331;SDS011;42237;53.340;6.812;2022-08-19T12:38:37;20.15;;;13.48;;
56331;SDS011;42237;53.340;6.812;2022-08-19T12:41:04;18.50;;;12.70;;
56331;SDS011;42237;53.340;6.812;2022-08-19T12:43:35;18.20;;;13.02;;
56331;SDS011;42237;53.340;6.812;2022-08-19T12:46:03;17.75;;;13.32;;
56331;SDS011;42237;53.340;6.812;2022-08-19T12:48:30;17.58;;;12.88;;
56331;SDS011;42237;53.340;6.812;2022-08-19T12:50:57;19.45;;;13.85;;
56331;SDS011;42237;53.340;6.812;2022-08-19T12:53:22;18.77;;;13.40;;
56331;SDS011;42237;53.340;6.812;2022-08-19T12:55:54;22.10;;;13.20;;
56331;SDS011;42237;53.340;6.812;2022-08-19T12:58:21;22.48;;;13.50;;
56331;SDS011;42237;53.340;6.812;2022-08-19T13:00:47;20.30;;;12.75;;
56331;SDS011;42237;53.340;6.812;2022-08-19T13:03:14;17.20;;;13.43;;
56331;SDS011;42237;53.340;6.812;2022-08-19T13:05:40;20.48;;;13.32;;
56331;SDS011;42237;53.340;6.812;2022-08-19T13:08:06;17.33;;;11.18;;
56331;SDS011;42237;53.340;6.812;2022-08-19T13:10:33;19.15;;;12.50;;
56331;SDS011;42237;53.340;6.812;2022-08-19T13:13:01;18.13;;;12.07;;
56331;SDS011;42237;53.340;6.812;2022-08-19T13:15:29;16.08;;;12.38;;
56331;SDS011;42237;53.340;6.812;2022-08-19T13:17:59;17.70;;;13.23;;
56331;SDS011;42237;53.340;6.812;2022-08-19T13:20:25;24.63;;;17.00;;
56331;SDS011;42237;53.340;6.812;2022-08-19T13:22:51;26.27;;;17.73;;
56331;SDS011;42237;53.340;6.812;2022-08-19T13:25:18;23.45;;;15.38;;
56331;SDS011;42237;53.340;6.812;2022-08-19T13:27:45;20.80;;;15.30;;
56331;SDS011;42237;53.340;6.812;2022-08-19T13:30:13;20.90;;;14.90;;
56331;SDS011;42237;53.340;6.812;2022-08-19T13:33:00;19.95;;;14.18;;
56331;SDS011;42237;53.340;6.812;2022-08-19T13:35:48;34.30;;;19.70;;
56331;SDS011;42237;53.340;6.812;2022-08-19T13:38:25;48.08;;;25.08;;
56331;SDS011;42237;53.340;6.812;2022-08-19T13:40:51;39.08;;;23.35;;
56331;SDS011;42237;53.340;6.812;2022-08-19T13:43:19;31.00;;;20.02;;
56331;SDS011;42237;53.340;6.812;2022-08-19T13:45:47;45.38;;;26.05;;
56331;SDS011;42237;53.340;6.812;2022-08-19T13:48:13;53.92;;;26.23;;
56331;SDS011;42237;53.340;6.812;2022-08-19T13:50:41;39.92;;;25.35;;
56331;SDS011;42237;53.340;6.812;2022-08-19T13:53:09;40.17;;;25.83;;
56331;SDS011;42237;53.340;6.812;2022-08-19T13:55:40;43.53;;;24.38;;
56331;SDS011;42237;53.340;6.812;2022-08-19T13:58:07;38.78;;;23.98;;
56331;SDS011;42237;53.340;6.812;2022-08-19T14:00:35;34.08;;;22.35;;
56331;SDS011;42237;53.340;6.812;2022-08-19T14:03:03;38.28;;;22.38;;
56331;SDS011;42237;53.340;6.812;2022-08-19T14:05:30;38.28;;;21.85;;
56331;SDS011;42237;53.340;6.812;2022-08-19T14:07:56;34.38;;;21.42;;
56331;SDS011;42237;53.340;6.812;2022-08-19T14:10:23;37.38;;;22.10;;
56331;SDS011;42237;53.340;6.812;2022-08-19T14:12:52;36.50;;;21.90;;
56331;SDS011;42237;53.340;6.812;2022-08-19T14:15:20;33.05;;;19.73;;
56331;SDS011;42237;53.340;6.812;2022-08-19T14:17:46;33.42;;;18.67;;
56331;SDS011;42237;53.340;6.812;2022-08-19T14:20:13;25.55;;;15.88;;
56331;SDS011;42237;53.340;6.812;2022-08-19T14:22:40;20.65;;;15.52;;
56331;SDS011;42237;53.340;6.812;2022-08-19T14:25:11;29.27;;;16.70;;
56331;SDS011;42237;53.340;6.812;2022-08-19T14:27:39;38.70;;;18.25;;
56331;SDS011;42237;53.340;6.812;2022-08-19T14:30:07;31.35;;;19.33;;
56331;SDS011;42237;53.340;6.812;2022-08-19T14:32:34;32.25;;;20.33;;
56331;SDS011;42237;53.340;6.812;2022-08-19T14:35:01;44.40;;;25.35;;
56331;SDS011;42237;53.340;6.812;2022-08-19T14:37:27;35.65;;;22.42;;
56331;SDS011;42237;53.340;6.812;2022-08-19T14:39:53;47.70;;;25.10;;
56331;SDS011;42237;53.340;6.812;2022-08-19T14:42:19;40.53;;;23.13;;
56331;SDS011;42237;53.340;6.812;2022-08-19T14:44:45;38.97;;;23.52;;